sensor_id;sensor_type;location;lat;lon;timestamp;P1;durP1;ratioP1;P2;durP2;ratioP2
1000;SDS011;489;47.806;12.858;2024-03-17T00:01:07;2.70;;;2.00;;
1000;SDS011;489;47.806;12.858;2024-03-17T00:03:09;2.77;;;2.57;;
1000;SDS011;489;47.806;12.858;2024-03-17T00:05:11;3.30;;;2.73;;
1000;SDS011;489;47.806;12.858;2024-03-17T00:07:13;3.27;;;2.70;;
1000;SDS011;489;47.806;12.858;2024-03-17T00:09:14;3.10;;;2.80;;
1000;SDS011;489;47.806;12.858;2024-03-17T00:11:16;3.37;;;2.70;;
1000;SDS011;489;47.806;12.858;2024-03-17T00:13:17;3.80;;;2.90;;
1000;SDS011;489;47.806;12.858;2024-03-17T00:15:19;2.90;;;2.50;;
1000;SDS011;489;47.806;12.858;2024-03-17T00:17:20;2.83;;;2.60;;
1000;SDS011;489;47.806;12.858;2024-03-17T00:19:23;3.17;;;2.87;;
1000;SDS011;489;47.806;12.858;2024-03-17T00:21:28;3.13;;;2.47;;
1000;SDS011;489;47.806;12.858;2024-03-17T00:23:30;3.17;;;2.70;;
1000;SDS011;489;47.806;12.858;2024-03-17T00:25:31;2.93;;;2.70;;
1000;SDS011;489;47.806;12.858;2024-03-17T00:27:34;3.33;;;3.03;;
1000;SDS011;489;47.806;12.858;2024-03-17T00:29:37;3.03;;;2.30;;
1000;SDS011;489;47.806;12.858;2024-03-17T00:31:39;2.77;;;2.50;;
1000;SDS011;489;47.806;12.858;2024-03-17T00:33:39;2.73;;;2.40;;
1000;SDS011;489;47.806;12.858;2024-03-17T00:35:41;3.37;;;3.07;;
1000;SDS011;489;47.806;12.858;2024-03-17T00:37:44;3.50;;;2.80;;
1000;SDS011;489;47.806;12.858;2024-03-17T00:39:45;4.27;;;2.83;;
1000;SDS011;489;47.806;12.858;2024-03-17T00:41:46;2.53;;;2.10;;
1000;SDS011;489;47.806;12.858;2024-03-17T00:43:49;2.47;;;2.27;;
1000;SDS011;489;47.806;12.858;2024-03-17T00:45:51;2.70;;;2.10;;
1000;SDS011;489;47.806;12.858;2024-03-17T00:47:53;2.37;;;2.00;;
1000;SDS011;489;47.806;12.858;2024-03-17T00:49:54;2.20;;;2.00;;
1000;SDS011;489;47.806;12.858;2024-03-17T00:51:56;1.83;;;1.60;;
1000;SDS011;489;47.806;12.858;2024-03-17T00:53:58;2.10;;;1.90;;
1000;SDS011;489;47.806;12.858;2024-03-17T00:56:00;1.93;;;1.80;;
1000;SDS011;489;47.806;12.858;2024-03-17T00:58:01;3.70;;;1.80;;
1000;SDS011;489;47.806;12.858;2024-03-17T01:00:04;1.60;;;1.50;;
1000;SDS011;489;47.806;12.858;2024-03-17T01:02:06;2.13;;;1.70;;
1000;SDS011;489;47.806;12.858;2024-03-17T01:04:08;1.77;;;1.60;;
1000;SDS011;489;47.806;12.858;2024-03-17T01:06:09;1.93;;;1.70;;
1000;SDS011;489;47.806;12.858;2024-03-17T01:08:11;1.83;;;1.60;;
1000;SDS011;489;47.806;12.858;2024-03-17T01:10:14;1.67;;;1.50;;
1000;SDS011;489;47.806;12.858;2024-03-17T01:12:16;3.70;;;1.80;;
1000;SDS011;489;47.806;12.858;2024-03-17T01:14:17;1.93;;;1.67;;
1000;SDS011;489;47.806;12.858;2024-03-17T01:16:19;1.77;;;1.67;;
1000;SDS011;489;47.806;12.858;2024-03-17T01:18:20;2.57;;;1.93;;
1000;SDS011;489;47.806;12.858;2024-03-17T01:20:21;2.53;;;2.00;;
1000;SDS011;489;47.806;12.858;2024-03-17T01:22:22;2.73;;;1.90;;
1000;SDS011;489;47.806;12.858;2024-03-17T01:24:24;2.40;;;2.20;;
1000;SDS011;489;47.806;12.858;2024-03-17T01:26:26;2.33;;;2.10;;
1000;SDS011;489;47.806;12.858;2024-03-17T01:28:28;2.63;;;2.10;;
1000;SDS011;489;47.806;12.858;2024-03-17T01:30:29;3.40;;;2.53;;
1000;SDS011;489;47.806;12.858;2024-03-17T01:32:33;2.43;;;2.13;;
1000;SDS011;489;47.806;12.858;2024-03-17T01:34:34;3.67;;;2.30;;
1000;SDS011;489;47.806;12.858;2024-03-17T01:36:36;3.30;;;2.70;;
1000;SDS011;489;47.806;12.858;2024-03-17T01:38:37;4.20;;;2.70;;
1000;SDS011;489;47.806;12.858;2024-03-17T01:40:38;2.83;;;2.40;;
1000;SDS011;489;47.806;12.858;2024-03-17T01:42:41;2.30;;;1.97;;
1000;SDS011;489;47.806;12.858;2024-03-17T01:44:43;2.23;;;1.73;;
1000;SDS011;489;47.806;12.858;2024-03-17T01:46:44;2.83;;;2.53;;
1000;SDS011;489;47.806;12.858;2024-03-17T01:48:46;2.33;;;2.13;;
1000;SDS011;489;47.806;12.858;2024-03-17T01:50:48;2.70;;;2.40;;
1000;SDS011;489;47.806;12.858;2024-03-17T01:52:52;4.57;;;2.73;;
1000;SDS011;489;47.806;12.858;2024-03-17T01:54:54;2.30;;;2.10;;
1000;SDS011;489;47.806;12.858;2024-03-17T01:56:56;2.43;;;2.17;;
1000;SDS011;489;47.806;12.858;2024-03-17T01:58:58;2.50;;;2.20;;
1000;SDS011;489;47.806;12.858;2024-03-17T02:01:02;2.60;;;2.40;;
1000;SDS011;489;47.806;12.858;2024-03-17T02:03:04;2.10;;;1.90;;
1000;SDS011;489;47.806;12.858;2024-03-17T02:05:09;2.70;;;2.37;;
1000;SDS011;489;47.806;12.858;2024-03-17T02:07:10;2.23;;;2.03;;
1000;SDS011;489;47.806;12.858;2024-03-17T02:09:12;2.70;;;2.50;;
1000;SDS011;489;47.806;12.858;2024-03-17T02:11:23;3.73;;;2.73;;
1000;SDS011;489;47.806;12.858;2024-03-17T02:13:26;3.67;;;2.50;;
1000;SDS011;489;47.806;12.858;2024-03-17T02:15:28;2.97;;;2.07;;
1000;SDS011;489;47.806;12.858;2024-03-17T02:17:30;2.80;;;2.40;;
1000;SDS011;489;47.806;12.858;2024-03-17T02:19:31;2.80;;;2.57;;
1000;SDS011;489;47.806;12.858;2024-03-17T02:21:33;3.17;;;2.87;;
1000;SDS011;489;47.806;12.858;2024-03-17T02:23:36;2.73;;;2.50;;
1000;SDS011;489;47.806;12.858;2024-03-17T02:25:38;3.30;;;3.00;;
1000;SDS011;489;47.806;12.858;2024-03-17T02:27:39;2.50;;;2.30;;
1000;SDS011;489;47.806;12.858;2024-03-17T02:29:41;3.60;;;2.60;;
1000;SDS011;489;47.806;12.858;2024-03-17T02:31:42;3.47;;;2.77;;
1000;SDS011;489;47.806;12.858;2024-03-17T02:33:44;3.73;;;3.43;;
1000;SDS011;489;47.806;12.858;2024-03-17T02:35:45;4.40;;;2.60;;
1000;SDS011;489;47.806;12.858;2024-03-17T02:37:47;3.03;;;2.73;;
1000;SDS011;489;47.806;12.858;2024-03-17T02:39:50;3.20;;;2.90;;
1000;SDS011;489;47.806;12.858;2024-03-17T02:41:51;5.50;;;3.13;;
1000;SDS011;489;47.806;12.858;2024-03-17T02:43:52;2.87;;;2.50;;
1000;SDS011;489;47.806;12.858;2024-03-17T02:45:53;3.53;;;2.90;;
1000;SDS011;489;47.806;12.858;2024-03-17T02:47:55;3.10;;;2.80;;
1000;SDS011;489;47.806;12.858;2024-03-17T02:49:57;5.00;;;2.97;;
1000;SDS011;489;47.806;12.858;2024-03-17T02:51:59;3.20;;;2.90;;
1000;SDS011;489;47.806;12.858;2024-03-17T02:54:01;5.17;;;3.77;;
1000;SDS011;489;47.806;12.858;2024-03-17T02:56:04;3.20;;;2.70;;
1000;SDS011;489;47.806;12.858;2024-03-17T02:58:06;4.07;;;3.17;;
1000;SDS011;489;47.806;12.858;2024-03-17T03:00:09;3.83;;;3.03;;
1000;SDS011;489;47.806;12.858;2024-03-17T03:02:13;5.43;;;3.53;;
1000;SDS011;489;47.806;12.858;2024-03-17T03:04:15;3.10;;;2.80;;
1000;SDS011;489;47.806;12.858;2024-03-17T03:06:17;3.33;;;2.50;;
1000;SDS011;489;47.806;12.858;2024-03-17T03:08:19;3.60;;;3.30;;
1000;SDS011;489;47.806;12.858;2024-03-17T03:10:21;3.57;;;2.53;;
1000;SDS011;489;47.806;12.858;2024-03-17T03:12:24;3.50;;;2.70;;
1000;SDS011;489;47.806;12.858;2024-03-17T03:14:26;4.80;;;3.30;;
1000;SDS011;489;47.806;12.858;2024-03-17T03:16:27;4.57;;;3.53;;
1000;SDS011;489;47.806;12.858;2024-03-17T03:18:29;3.70;;;3.20;;
1000;SDS011;489;47.806;12.858;2024-03-17T03:20:50;3.77;;;3.10;;
1000;SDS011;489;47.806;12.858;2024-03-17T03:22:53;3.60;;;3.30;;
1000;SDS011;489;47.806;12.858;2024-03-17T03:24:55;5.97;;;3.20;;
1000;SDS011;489;47.806;12.858;2024-03-17T03:26:57;4.60;;;3.27;;
1000;SDS011;489;47.806;12.858;2024-03-17T03:29:00;3.17;;;2.87;;
1000;SDS011;489;47.806;12.858;2024-03-17T03:31:02;4.30;;;3.37;;
1000;SDS011;489;47.806;12.858;2024-03-17T03:33:05;3.53;;;3.23;;
1000;SDS011;489;47.806;12.858;2024-03-17T03:35:06;3.40;;;3.00;;
1000;SDS011;489;47.806;12.858;2024-03-17T03:37:09;3.93;;;3.13;;
1000;SDS011;489;47.806;12.858;2024-03-17T03:39:11;4.17;;;3.40;;
1000;SDS011;489;47.806;12.858;2024-03-17T03:41:15;3.90;;;3.30;;
1000;SDS011;489;47.806;12.858;2024-03-17T03:43:16;4.97;;;3.77;;
1000;SDS011;489;47.806;12.858;2024-03-17T03:45:38;4.23;;;3.20;;
1000;SDS011;489;47.806;12.858;2024-03-17T03:47:40;3.70;;;3.30;;
1000;SDS011;489;47.806;12.858;2024-03-17T03:49:42;3.93;;;3.20;;
1000;SDS011;489;47.806;12.858;2024-03-17T03:51:45;4.00;;;3.47;;
1000;SDS011;489;47.806;12.858;2024-03-17T03:53:47;4.10;;;3.40;;
1000;SDS011;489;47.806;12.858;2024-03-17T03:55:48;4.20;;;3.30;;
1000;SDS011;489;47.806;12.858;2024-03-17T03:57:51;3.90;;;3.50;;
1000;SDS011;489;47.806;12.858;2024-03-17T03:59:52;4.23;;;3.70;;
1000;SDS011;489;47.806;12.858;2024-03-17T04:01:57;4.73;;;3.87;;
1000;SDS011;489;47.806;12.858;2024-03-17T04:03:59;4.37;;;3.50;;
1000;SDS011;489;47.806;12.858;2024-03-17T04:06:02;4.47;;;4.03;;
1000;SDS011;489;47.806;12.858;2024-03-17T04:08:05;4.00;;;3.40;;
1000;SDS011;489;47.806;12.858;2024-03-17T04:10:09;4.63;;;3.80;;
1000;SDS011;489;47.806;12.858;2024-03-17T04:12:11;4.07;;;3.53;;
1000;SDS011;489;47.806;12.858;2024-03-17T04:14:13;5.33;;;4.23;;
1000;SDS011;489;47.806;12.858;2024-03-17T04:16:15;4.43;;;3.73;;
1000;SDS011;489;47.806;12.858;2024-03-17T04:18:18;4.30;;;3.90;;
1000;SDS011;489;47.806;12.858;2024-03-17T04:20:19;5.47;;;4.30;;
1000;SDS011;489;47.806;12.858;2024-03-17T04:22:22;5.40;;;4.10;;
1000;SDS011;489;47.806;12.858;2024-03-17T04:24:22;5.37;;;4.20;;
1000;SDS011;489;47.806;12.858;2024-03-17T04:26:24;6.37;;;4.57;;
1000;SDS011;489;47.806;12.858;2024-03-17T04:28:26;7.30;;;5.30;;
1000;SDS011;489;47.806;12.858;2024-03-17T04:30:29;6.67;;;4.50;;
1000;SDS011;489;47.806;12.858;2024-03-17T04:32:32;4.20;;;3.80;;
1000;SDS011;489;47.806;12.858;2024-03-17T04:34:36;6.07;;;4.20;;
1000;SDS011;489;47.806;12.858;2024-03-17T04:36:38;3.77;;;3.40;;
1000;SDS011;489;47.806;12.858;2024-03-17T04:38:40;5.50;;;4.03;;
1000;SDS011;489;47.806;12.858;2024-03-17T04:40:42;4.30;;;3.90;;
1000;SDS011;489;47.806;12.858;2024-03-17T04:42:43;5.47;;;3.93;;
1000;SDS011;489;47.806;12.858;2024-03-17T04:44:45;4.43;;;3.97;;
1000;SDS011;489;47.806;12.858;2024-03-17T04:46:46;5.27;;;3.63;;
1000;SDS011;489;47.806;12.858;2024-03-17T04:48:48;4.47;;;3.63;;
1000;SDS011;489;47.806;12.858;2024-03-17T04:50:52;4.43;;;4.03;;
1000;SDS011;489;47.806;12.858;2024-03-17T04:52:54;4.30;;;3.70;;
1000;SDS011;489;47.806;12.858;2024-03-17T04:54:56;4.10;;;3.70;;
1000;SDS011;489;47.806;12.858;2024-03-17T04:56:57;5.37;;;4.03;;
1000;SDS011;489;47.806;12.858;2024-03-17T04:58:59;4.33;;;3.93;;
1000;SDS011;489;47.806;12.858;2024-03-17T05:01:04;5.97;;;4.70;;
1000;SDS011;489;47.806;12.858;2024-03-17T05:03:08;5.27;;;4.20;;
1000;SDS011;489;47.806;12.858;2024-03-17T05:05:09;4.50;;;3.80;;
1000;SDS011;489;47.806;12.858;2024-03-17T05:07:12;5.17;;;4.20;;
1000;SDS011;489;47.806;12.858;2024-03-17T05:09:13;5.13;;;4.13;;
1000;SDS011;489;47.806;12.858;2024-03-17T05:11:15;5.07;;;4.20;;
1000;SDS011;489;47.806;12.858;2024-03-17T05:13:18;4.10;;;3.70;;
1000;SDS011;489;47.806;12.858;2024-03-17T05:15:19;4.70;;;4.20;;
1000;SDS011;489;47.806;12.858;2024-03-17T05:17:21;4.77;;;4.20;;
1000;SDS011;489;47.806;12.858;2024-03-17T05:19:24;5.80;;;4.63;;
1000;SDS011;489;47.806;12.858;2024-03-17T05:21:26;5.23;;;4.60;;
1000;SDS011;489;47.806;12.858;2024-03-17T05:23:32;4.90;;;4.40;;
1000;SDS011;489;47.806;12.858;2024-03-17T05:25:34;5.27;;;4.40;;
1000;SDS011;489;47.806;12.858;2024-03-17T05:27:37;6.27;;;4.80;;
1000;SDS011;489;47.806;12.858;2024-03-17T05:29:39;6.17;;;4.53;;
1000;SDS011;489;47.806;12.858;2024-03-17T05:31:41;5.50;;;4.40;;
1000;SDS011;489;47.806;12.858;2024-03-17T05:33:44;6.00;;;4.60;;
1000;SDS011;489;47.806;12.858;2024-03-17T05:35:48;6.47;;;5.77;;
1000;SDS011;489;47.806;12.858;2024-03-17T05:37:50;5.70;;;4.50;;
1000;SDS011;489;47.806;12.858;2024-03-17T05:39:54;5.53;;;4.73;;
1000;SDS011;489;47.806;12.858;2024-03-17T05:41:56;7.60;;;5.87;;
1000;SDS011;489;47.806;12.858;2024-03-17T05:43:58;6.33;;;4.13;;
1000;SDS011;489;47.806;12.858;2024-03-17T05:45:59;4.70;;;4.07;;
1000;SDS011;489;47.806;12.858;2024-03-17T05:48:03;5.83;;;4.90;;
1000;SDS011;489;47.806;12.858;2024-03-17T05:50:05;5.43;;;4.10;;
1000;SDS011;489;47.806;12.858;2024-03-17T05:52:08;5.00;;;4.30;;
1000;SDS011;489;47.806;12.858;2024-03-17T05:54:10;5.77;;;4.63;;
1000;SDS011;489;47.806;12.858;2024-03-17T05:56:14;6.00;;;4.70;;
1000;SDS011;489;47.806;12.858;2024-03-17T05:58:17;5.67;;;4.70;;
1000;SDS011;489;47.806;12.858;2024-03-17T06:00:18;5.60;;;4.20;;
1000;SDS011;489;47.806;12.858;2024-03-17T06:02:21;6.17;;;4.97;;
1000;SDS011;489;47.806;12.858;2024-03-17T06:04:23;5.63;;;5.03;;
1000;SDS011;489;47.806;12.858;2024-03-17T06:06:26;4.90;;;4.40;;
1000;SDS011;489;47.806;12.858;2024-03-17T06:08:27;6.00;;;4.47;;
1000;SDS011;489;47.806;12.858;2024-03-17T06:10:29;6.03;;;5.33;;
1000;SDS011;489;47.806;12.858;2024-03-17T06:12:32;6.27;;;5.67;;
1000;SDS011;489;47.806;12.858;2024-03-17T06:14:35;5.63;;;4.60;;
1000;SDS011;489;47.806;12.858;2024-03-17T06:16:37;6.80;;;5.17;;
1000;SDS011;489;47.806;12.858;2024-03-17T06:18:37;5.60;;;4.83;;
1000;SDS011;489;47.806;12.858;2024-03-17T06:20:39;7.03;;;5.63;;
1000;SDS011;489;47.806;12.858;2024-03-17T06:22:42;6.70;;;5.40;;
1000;SDS011;489;47.806;12.858;2024-03-17T06:24:46;6.63;;;5.37;;
1000;SDS011;489;47.806;12.858;2024-03-17T06:26:50;6.10;;;5.10;;
1000;SDS011;489;47.806;12.858;2024-03-17T06:28:53;6.33;;;5.03;;
1000;SDS011;489;47.806;12.858;2024-03-17T06:30:55;6.03;;;4.77;;
1000;SDS011;489;47.806;12.858;2024-03-17T06:32:59;5.60;;;5.00;;
1000;SDS011;489;47.806;12.858;2024-03-17T06:35:02;6.80;;;5.43;;
1000;SDS011;489;47.806;12.858;2024-03-17T06:37:04;5.67;;;5.17;;
1000;SDS011;489;47.806;12.858;2024-03-17T06:39:06;5.27;;;4.60;;
1000;SDS011;489;47.806;12.858;2024-03-17T06:41:09;6.60;;;5.90;;
1000;SDS011;489;47.806;12.858;2024-03-17T06:43:11;6.00;;;5.40;;
1000;SDS011;489;47.806;12.858;2024-03-17T06:45:14;5.60;;;4.37;;
1000;SDS011;489;47.806;12.858;2024-03-17T06:47:18;4.10;;;3.70;;
1000;SDS011;489;47.806;12.858;2024-03-17T06:49:19;4.63;;;4.13;;
1000;SDS011;489;47.806;12.858;2024-03-17T06:51:20;4.50;;;4.10;;
1000;SDS011;489;47.806;12.858;2024-03-17T06:53:22;5.97;;;4.83;;
1000;SDS011;489;47.806;12.858;2024-03-17T06:55:24;5.30;;;4.10;;
1000;SDS011;489;47.806;12.858;2024-03-17T06:57:26;5.30;;;4.30;;
1000;SDS011;489;47.806;12.858;2024-03-17T06:59:27;7.43;;;5.50;;
1000;SDS011;489;47.806;12.858;2024-03-17T07:01:31;5.00;;;4.10;;
1000;SDS011;489;47.806;12.858;2024-03-17T07:03:33;4.20;;;3.80;;
1000;SDS011;489;47.806;12.858;2024-03-17T07:05:35;5.03;;;4.17;;
1000;SDS011;489;47.806;12.858;2024-03-17T07:07:37;5.60;;;5.10;;
1000;SDS011;489;47.806;12.858;2024-03-17T07:09:39;6.37;;;5.30;;
1000;SDS011;489;47.806;12.858;2024-03-17T07:11:41;5.03;;;4.50;;
1000;SDS011;489;47.806;12.858;2024-03-17T07:13:44;5.60;;;5.10;;
1000;SDS011;489;47.806;12.858;2024-03-17T07:15:46;5.87;;;4.73;;
1000;SDS011;489;47.806;12.858;2024-03-17T07:17:49;4.33;;;3.93;;
1000;SDS011;489;47.806;12.858;2024-03-17T07:19:51;4.60;;;4.20;;
1000;SDS011;489;47.806;12.858;2024-03-17T07:21:53;3.97;;;3.57;;
1000;SDS011;489;47.806;12.858;2024-03-17T07:23:54;4.80;;;4.30;;
1000;SDS011;489;47.806;12.858;2024-03-17T07:25:58;3.83;;;3.47;;
1000;SDS011;489;47.806;12.858;2024-03-17T07:28:01;3.60;;;3.20;;
1000;SDS011;489;47.806;12.858;2024-03-17T07:30:03;4.10;;;3.70;;
1000;SDS011;489;47.806;12.858;2024-03-17T07:32:05;4.10;;;3.60;;
1000;SDS011;489;47.806;12.858;2024-03-17T07:34:08;5.10;;;4.00;;
1000;SDS011;489;47.806;12.858;2024-03-17T07:36:10;4.13;;;3.73;;
1000;SDS011;489;47.806;12.858;2024-03-17T07:38:12;4.70;;;4.30;;
1000;SDS011;489;47.806;12.858;2024-03-17T07:40:14;4.17;;;3.77;;
1000;SDS011;489;47.806;12.858;2024-03-17T07:42:16;4.20;;;3.80;;
1000;SDS011;489;47.806;12.858;2024-03-17T07:44:18;6.27;;;4.80;;
1000;SDS011;489;47.806;12.858;2024-03-17T07:46:20;3.90;;;3.53;;
1000;SDS011;489;47.806;12.858;2024-03-17T07:48:21;3.90;;;3.60;;
1000;SDS011;489;47.806;12.858;2024-03-17T07:50:25;5.20;;;4.27;;
1000;SDS011;489;47.806;12.858;2024-03-17T07:52:27;4.50;;;4.07;;
1000;SDS011;489;47.806;12.858;2024-03-17T07:54:29;4.73;;;4.20;;
1000;SDS011;489;47.806;12.858;2024-03-17T07:56:30;4.90;;;4.40;;
1000;SDS011;489;47.806;12.858;2024-03-17T07:58:32;5.07;;;4.57;;
1000;SDS011;489;47.806;12.858;2024-03-17T08:00:34;4.87;;;4.43;;
1000;SDS011;489;47.806;12.858;2024-03-17T08:02:37;4.20;;;3.80;;
1000;SDS011;489;47.806;12.858;2024-03-17T08:04:39;5.80;;;4.30;;
1000;SDS011;489;47.806;12.858;2024-03-17T08:06:42;5.80;;;4.43;;
1000;SDS011;489;47.806;12.858;2024-03-17T08:08:44;5.33;;;4.83;;
1000;SDS011;489;47.806;12.858;2024-03-17T08:10:45;5.10;;;4.60;;
1000;SDS011;489;47.806;12.858;2024-03-17T08:12:48;4.80;;;4.40;;
1000;SDS011;489;47.806;12.858;2024-03-17T08:14:51;5.00;;;4.50;;
1000;SDS011;489;47.806;12.858;2024-03-17T08:16:53;4.37;;;3.97;;
1000;SDS011;489;47.806;12.858;2024-03-17T08:18:55;5.30;;;4.50;;
1000;SDS011;489;47.806;12.858;2024-03-17T08:20:57;5.17;;;4.43;;
1000;SDS011;489;47.806;12.858;2024-03-17T08:23:02;4.17;;;3.70;;
1000;SDS011;489;47.806;12.858;2024-03-17T08:25:04;4.70;;;4.20;;
1000;SDS011;489;47.806;12.858;2024-03-17T08:27:06;4.37;;;3.63;;
1000;SDS011;489;47.806;12.858;2024-03-17T08:29:26;3.87;;;3.30;;
1000;SDS011;489;47.806;12.858;2024-03-17T08:31:27;3.43;;;3.13;;
1000;SDS011;489;47.806;12.858;2024-03-17T08:33:29;3.77;;;3.47;;
1000;SDS011;489;47.806;12.858;2024-03-17T08:35:31;3.80;;;3.40;;
1000;SDS011;489;47.806;12.858;2024-03-17T08:37:35;4.60;;;3.50;;
1000;SDS011;489;47.806;12.858;2024-03-17T08:39:39;4.30;;;3.90;;
1000;SDS011;489;47.806;12.858;2024-03-17T08:41:41;4.13;;;3.70;;
1000;SDS011;489;47.806;12.858;2024-03-17T08:43:44;3.90;;;3.60;;
1000;SDS011;489;47.806;12.858;2024-03-17T08:45:53;3.83;;;3.50;;
1000;SDS011;489;47.806;12.858;2024-03-17T08:47:55;3.70;;;3.23;;
1000;SDS011;489;47.806;12.858;2024-03-17T08:49:57;5.17;;;4.00;;
1000;SDS011;489;47.806;12.858;2024-03-17T08:52:04;3.90;;;3.60;;
1000;SDS011;489;47.806;12.858;2024-03-17T08:54:06;3.83;;;3.50;;
1000;SDS011;489;47.806;12.858;2024-03-17T08:56:08;3.90;;;3.60;;
1000;SDS011;489;47.806;12.858;2024-03-17T08:58:10;3.70;;;3.40;;
1000;SDS011;489;47.806;12.858;2024-03-17T09:00:11;5.17;;;3.90;;
1000;SDS011;489;47.806;12.858;2024-03-17T09:02:15;4.73;;;3.40;;
1000;SDS011;489;47.806;12.858;2024-03-17T09:04:17;4.50;;;3.60;;
1000;SDS011;489;47.806;12.858;2024-03-17T09:06:18;3.90;;;3.47;;
1000;SDS011;489;47.806;12.858;2024-03-17T09:08:22;4.03;;;3.60;;
1000;SDS011;489;47.806;12.858;2024-03-17T09:10:24;2.80;;;2.60;;
1000;SDS011;489;47.806;12.858;2024-03-17T09:12:27;2.83;;;2.60;;
1000;SDS011;489;47.806;12.858;2024-03-17T09:14:29;4.13;;;3.80;;
1000;SDS011;489;47.806;12.858;2024-03-17T09:16:32;4.00;;;3.70;;
1000;SDS011;489;47.806;12.858;2024-03-17T09:18:34;4.03;;;3.67;;
1000;SDS011;489;47.806;12.858;2024-03-17T09:20:36;3.53;;;3.23;;
1000;SDS011;489;47.806;12.858;2024-03-17T09:22:38;4.43;;;3.33;;
1000;SDS011;489;47.806;12.858;2024-03-17T09:24:39;3.53;;;3.23;;
1000;SDS011;489;47.806;12.858;2024-03-17T09:26:42;4.40;;;3.70;;
1000;SDS011;489;47.806;12.858;2024-03-17T09:28:45;4.60;;;4.20;;
1000;SDS011;489;47.806;12.858;2024-03-17T09:30:47;4.80;;;3.47;;
1000;SDS011;489;47.806;12.858;2024-03-17T09:32:48;3.60;;;3.30;;
1000;SDS011;489;47.806;12.858;2024-03-17T09:34:50;3.87;;;3.40;;
1000;SDS011;489;47.806;12.858;2024-03-17T09:36:51;9.97;;;4.43;;
1000;SDS011;489;47.806;12.858;2024-03-17T09:38:53;4.60;;;3.50;;
1000;SDS011;489;47.806;12.858;2024-03-17T09:40:54;4.40;;;3.40;;
1000;SDS011;489;47.806;12.858;2024-03-17T09:43:00;3.90;;;3.50;;
1000;SDS011;489;47.806;12.858;2024-03-17T09:45:03;3.63;;;3.33;;
1000;SDS011;489;47.806;12.858;2024-03-17T09:47:05;3.70;;;3.33;;
1000;SDS011;489;47.806;12.858;2024-03-17T09:49:14;4.07;;;3.40;;
1000;SDS011;489;47.806;12.858;2024-03-17T09:51:18;4.00;;;3.60;;
1000;SDS011;489;47.806;12.858;2024-03-17T09:53:22;4.10;;;3.70;;
1000;SDS011;489;47.806;12.858;2024-03-17T09:55:26;3.80;;;3.50;;
1000;SDS011;489;47.806;12.858;2024-03-17T09:57:28;3.60;;;3.30;;
1000;SDS011;489;47.806;12.858;2024-03-17T09:59:30;3.60;;;3.30;;
1000;SDS011;489;47.806;12.858;2024-03-17T10:01:34;4.13;;;3.83;;
1000;SDS011;489;47.806;12.858;2024-03-17T10:03:39;4.40;;;4.00;;
1000;SDS011;489;47.806;12.858;2024-03-17T10:05:45;4.40;;;4.00;;
1000;SDS011;489;47.806;12.858;2024-03-17T10:07:47;3.50;;;3.20;;
1000;SDS011;489;47.806;12.858;2024-03-17T10:09:48;4.13;;;3.73;;
1000;SDS011;489;47.806;12.858;2024-03-17T10:11:51;3.77;;;3.47;;
1000;SDS011;489;47.806;12.858;2024-03-17T10:13:59;3.80;;;3.50;;
1000;SDS011;489;47.806;12.858;2024-03-17T10:16:01;3.63;;;3.33;;
1000;SDS011;489;47.806;12.858;2024-03-17T10:18:06;4.67;;;4.27;;
1000;SDS011;489;47.806;12.858;2024-03-17T10:20:23;4.77;;;4.20;;
1000;SDS011;489;47.806;12.858;2024-03-17T10:22:26;3.80;;;3.50;;
1000;SDS011;489;47.806;12.858;2024-03-17T10:24:27;3.93;;;3.60;;
1000;SDS011;489;47.806;12.858;2024-03-17T10:26:29;3.70;;;3.40;;
1000;SDS011;489;47.806;12.858;2024-03-17T10:28:30;3.87;;;3.47;;
1000;SDS011;489;47.806;12.858;2024-03-17T10:30:33;3.00;;;2.80;;
1000;SDS011;489;47.806;12.858;2024-03-17T10:32:37;3.80;;;3.40;;
1000;SDS011;489;47.806;12.858;2024-03-17T10:34:41;3.90;;;3.57;;
1000;SDS011;489;47.806;12.858;2024-03-17T10:36:43;3.73;;;3.43;;
1000;SDS011;489;47.806;12.858;2024-03-17T10:38:51;5.30;;;3.57;;
1000;SDS011;489;47.806;12.858;2024-03-17T10:40:53;3.50;;;3.20;;
1000;SDS011;489;47.806;12.858;2024-03-17T10:42:56;3.30;;;3.00;;
1000;SDS011;489;47.806;12.858;2024-03-17T10:44:58;3.87;;;3.47;;
1000;SDS011;489;47.806;12.858;2024-03-17T10:47:00;3.50;;;3.20;;
1000;SDS011;489;47.806;12.858;2024-03-17T10:49:04;3.40;;;3.10;;
1000;SDS011;489;47.806;12.858;2024-03-17T10:51:09;2.80;;;2.60;;
1000;SDS011;489;47.806;12.858;2024-03-17T10:53:18;2.57;;;2.37;;
1000;SDS011;489;47.806;12.858;2024-03-17T10:55:26;3.37;;;3.07;;
1000;SDS011;489;47.806;12.858;2024-03-17T10:57:31;3.87;;;3.23;;
1000;SDS011;489;47.806;12.858;2024-03-17T10:59:35;3.13;;;2.87;;
1000;SDS011;489;47.806;12.858;2024-03-17T11:01:41;2.93;;;2.60;;
1000;SDS011;489;47.806;12.858;2024-03-17T11:03:42;3.30;;;3.03;;
1000;SDS011;489;47.806;12.858;2024-03-17T11:05:47;3.53;;;2.80;;
1000;SDS011;489;47.806;12.858;2024-03-17T11:07:51;7.37;;;3.57;;
1000;SDS011;489;47.806;12.858;2024-03-17T11:09:55;3.80;;;3.17;;
1000;SDS011;489;47.806;12.858;2024-03-17T11:11:57;3.97;;;3.40;;
1000;SDS011;489;47.806;12.858;2024-03-17T11:14:15;3.80;;;3.50;;
1000;SDS011;489;47.806;12.858;2024-03-17T11:16:25;3.33;;;3.03;;
1000;SDS011;489;47.806;12.858;2024-03-17T11:18:33;3.60;;;3.30;;
1000;SDS011;489;47.806;12.858;2024-03-17T11:20:39;3.67;;;3.30;;
1000;SDS011;489;47.806;12.858;2024-03-17T11:22:43;2.87;;;2.63;;
1000;SDS011;489;47.806;12.858;2024-03-17T11:24:47;3.53;;;3.23;;
1000;SDS011;489;47.806;12.858;2024-03-17T11:26:49;3.77;;;3.47;;
1000;SDS011;489;47.806;12.858;2024-03-17T11:28:51;3.60;;;3.30;;
1000;SDS011;489;47.806;12.858;2024-03-17T11:30:52;3.03;;;2.83;;
1000;SDS011;489;47.806;12.858;2024-03-17T11:32:57;2.77;;;2.57;;
1000;SDS011;489;47.806;12.858;2024-03-17T11:35:12;3.10;;;2.87;;
1000;SDS011;489;47.806;12.858;2024-03-17T11:39:54;2.87;;;2.67;;
1000;SDS011;489;47.806;12.858;2024-03-17T11:42:04;2.80;;;2.60;;
1000;SDS011;489;47.806;12.858;2024-03-17T11:44:14;4.30;;;2.70;;
1000;SDS011;489;47.806;12.858;2024-03-17T11:46:18;3.43;;;2.20;;
1000;SDS011;489;47.806;12.858;2024-03-17T11:48:19;3.90;;;2.70;;
1000;SDS011;489;47.806;12.858;2024-03-17T11:50:21;2.67;;;2.47;;
1000;SDS011;489;47.806;12.858;2024-03-17T11:52:22;3.50;;;2.80;;
1000;SDS011;489;47.806;12.858;2024-03-17T11:54:24;2.93;;;2.73;;
1000;SDS011;489;47.806;12.858;2024-03-17T11:56:29;3.27;;;2.67;;
1000;SDS011;489;47.806;12.858;2024-03-17T11:58:31;3.30;;;2.47;;
1000;SDS011;489;47.806;12.858;2024-03-17T12:00:33;2.53;;;2.30;;
1000;SDS011;489;47.806;12.858;2024-03-17T12:02:35;2.50;;;2.30;;
1000;SDS011;489;47.806;12.858;2024-03-17T12:04:39;3.93;;;2.60;;
1000;SDS011;489;47.806;12.858;2024-03-17T12:06:44;2.93;;;2.70;;
1000;SDS011;489;47.806;12.858;2024-03-17T12:08:45;5.60;;;2.60;;
1000;SDS011;489;47.806;12.858;2024-03-17T12:10:47;2.70;;;2.50;;
1000;SDS011;489;47.806;12.858;2024-03-17T12:12:49;2.63;;;2.43;;
1000;SDS011;489;47.806;12.858;2024-03-17T12:14:51;2.73;;;2.53;;
1000;SDS011;489;47.806;12.858;2024-03-17T12:16:52;2.80;;;2.60;;
1000;SDS011;489;47.806;12.858;2024-03-17T12:19:04;3.70;;;2.67;;
1000;SDS011;489;47.806;12.858;2024-03-17T12:21:10;2.70;;;2.50;;
1000;SDS011;489;47.806;12.858;2024-03-17T12:23:15;2.80;;;2.60;;
1000;SDS011;489;47.806;12.858;2024-03-17T12:25:21;3.67;;;3.00;;
1000;SDS011;489;47.806;12.858;2024-03-17T12:27:23;3.13;;;2.87;;
1000;SDS011;489;47.806;12.858;2024-03-17T12:29:28;3.27;;;2.97;;
1000;SDS011;489;47.806;12.858;2024-03-17T12:31:33;2.70;;;2.50;;
1000;SDS011;489;47.806;12.858;2024-03-17T12:33:34;2.80;;;2.40;;
1000;SDS011;489;47.806;12.858;2024-03-17T12:35:44;3.20;;;2.50;;
1000;SDS011;489;47.806;12.858;2024-03-17T12:37:45;4.10;;;2.70;;
1000;SDS011;489;47.806;12.858;2024-03-17T12:39:47;2.73;;;2.40;;
1000;SDS011;489;47.806;12.858;2024-03-17T12:42:01;5.03;;;2.40;;
1000;SDS011;489;47.806;12.858;2024-03-17T12:44:04;4.50;;;2.57;;
1000;SDS011;489;47.806;12.858;2024-03-17T12:46:07;2.53;;;2.33;;